Time;durP1;ratioP1;P1;durP2;ratioP2;P2;SDS_P1;SDS_P2;PMS_P1;PMS_P2;Temp;Humidity;BMP_temperature;BMP_pressure;BME280_temperature;BME280_humidity;BME280_pressure;Samples;Min_cycle;Max_cycle;Signal;HPM_P1;HPM_P2
2021/09/21 00:01:38;;;;;;;;;31.50;27.00;;;;;;;;4991888;28;45284;-74
2021/09/21 00:04:03;;;;;;;;;25.00;24.00;;;;;;;;4993003;28;45305;-74
2021/09/21 00:06:28;;;;;;;;;28.50;26.00;;;;;;;;4991806;28;45647;-76
2021/09/21 00:08:54;;;;;;;;;28.75;22.25;;;;;;;;4990334;28;46096;-76
2021/09/21 00:11:19;;;;;;;;;29.25;24.50;;;;;;;;4991947;28;45388;-73
2021/09/21 00:13:44;;;;;;;;;29.75;28.25;;;;;;;;4992210;28;45320;-76
2021/09/21 00:16:09;;;;;;;;;27.75;23.50;;;;;;;;4992136;28;45415;-76
2021/09/21 00:18:35;;;;;;;;;23.00;18.00;;;;;;;;4993717;28;45902;-75
2021/09/21 00:21:00;;;;;;;;;30.00;25.50;;;;;;;;4991623;28;45352;-74
2021/09/21 00:23:26;;;;;;;;;31.25;23.75;;;;;;;;4991245;28;45252;-75
2021/09/21 00:25:52;;;;;;;;;27.50;25.75;;;;;;;;4991945;28;45648;-76
2021/09/21 00:28:17;;;;;;;;;28.50;26.25;;;;;;;;4991320;28;47073;-75
2021/09/21 00:30:50;;;;;;;;;33.75;28.00;;;;;;;;4993018;28;45374;-74
2021/09/21 00:33:18;;;;;;;;;30.25;21.00;;;;;;;;4991703;28;45833;-76
2021/09/21 00:35:43;;;;;;;;;32.00;30.25;;;;;;;;4991482;28;45464;-74
2021/09/21 00:38:09;;;;;;;;;30.00;27.75;;;;;;;;4991175;28;46330;-74
2021/09/21 00:40:34;;;;;;;;;28.25;24.50;;;;;;;;4991787;28;45661;-74
2021/09/21 00:43:01;;;;;;;;;33.00;31.00;;;;;;;;4992466;28;45288;-74
2021/09/21 00:45:26;;;;;;;;;31.50;28.50;;;;;;;;4991541;28;45355;-74
2021/09/21 00:47:52;;;;;;;;;33.75;29.75;;;;;;;;4989926;28;45563;-75
2021/09/21 00:50:18;;;;;;;;;34.50;30.25;;;;;;;;4991288;28;45296;-76
2021/09/21 00:52:43;;;;;;;;;30.00;26.00;;;;;;;;4991170;28;45568;-76
2021/09/21 00:55:09;;;;;;;;;26.50;22.25;;;;;;;;4991630;28;45442;-77
2021/09/21 00:57:35;;;;;;;;;35.25;31.25;;;;;;;;4993641;28;45350;-77
2021/09/21 01:00:00;;;;;;;;;29.75;28.50;;;;;;;;4991584;28;45289;-77
2021/09/21 01:02:26;;;;;;;;;34.75;30.00;;;;;;;;4991441;28;46009;-77
2021/09/21 01:04:51;;;;;;;;;36.50;29.00;;;;;;;;4991660;28;45462;-76
2021/09/21 01:07:16;;;;;;;;;32.50;27.50;;;;;;;;4990868;28;46636;-76
2021/09/21 01:09:43;;;;;;;;;27.50;25.75;;;;;;;;4993692;28;45340;-76
2021/09/21 01:12:08;;;;;;;;;30.50;28.75;;;;;;;;4991543;28;45477;-77
2021/09/21 01:14:34;;;;;;;;;33.75;28.50;;;;;;;;4989571;28;45532;-77
2021/09/21 01:16:59;;;;;;;;;31.75;28.50;;;;;;;;4991213;28;46434;-74
2021/09/21 01:19:24;;;;;;;;;32.75;27.25;;;;;;;;4991394;28;45549;-75
2021/09/21 01:21:49;;;;;;;;;27.75;25.25;;;;;;;;4993045;28;45545;-75
2021/09/21 01:24:16;;;;;;;;;33.00;29.50;;;;;;;;4989760;28;45534;-75
2021/09/21 01:26:41;;;;;;;;;32.25;29.00;;;;;;;;4989748;28;46396;-75
2021/09/21 01:29:06;;;;;;;;;29.25;25.50;;;;;;;;4990934;28;45396;-74
2021/09/21 01:31:32;;;;;;;;;30.25;25.25;;;;;;;;4991340;28;45431;-77
2021/09/21 01:33:58;;;;;;;;;29.75;29.25;;;;;;;;4992593;28;45362;-77
2021/09/21 01:36:24;;;;;;;;;28.00;25.25;;;;;;;;4991555;28;46884;-75
2021/09/21 01:38:50;;;;;;;;;31.00;30.50;;;;;;;;4991022;28;45376;-76
2021/09/21 01:41:15;;;;;;;;;29.00;24.75;;;;;;;;4989640;28;45461;-76
2021/09/21 01:43:42;;;;;;;;;44.50;33.75;;;;;;;;4991165;28;45475;-76
2021/09/21 01:46:08;;;;;;;;;34.00;30.00;;;;;;;;4990901;28;47148;-75
2021/09/21 01:48:33;;;;;;;;;33.75;29.50;;;;;;;;4992744;28;45473;-76
2021/09/21 01:51:04;;;;;;;;;35.25;32.00;;;;;;;;4990894;28;45425;-75
2021/09/21 01:53:44;;;;;;;;;33.25;30.00;;;;;;;;4991009;28;45280;-75
2021/09/21 01:58:53;;;;;;;;;34.75;29.75;;;;;;;;4991177;28;45478;-76
2021/09/21 02:01:20;;;;;;;;;40.25;34.50;;;;;;;;4989987;28;45307;-76
2021/09/21 02:03:46;;;;;;;;;41.75;32.25;;;;;;;;4992380;28;45438;-76
2021/09/21 02:06:12;;;;;;;;;44.75;35.50;;;;;;;;4989094;28;47104;-76
2021/09/21 02:08:37;;;;;;;;;36.25;31.50;;;;;;;;4990771;28;45364;-76
2021/09/21 02:11:02;;;;;;;;;33.75;31.75;;;;;;;;4990681;28;45383;-76
2021/09/21 02:13:28;;;;;;;;;35.75;30.75;;;;;;;;4992352;28;45493;-76
2021/09/21 02:15:53;;;;;;;;;42.75;34.00;;;;;;;;4991939;28;46181;-77
2021/09/21 02:18:19;;;;;;;;;36.75;31.75;;;;;;;;4990881;28;45361;-76
2021/09/21 02:20:44;;;;;;;;;38.25;32.75;;;;;;;;4990792;28;45470;-76
2021/09/21 02:23:09;;;;;;;;;36.75;31.25;;;;;;;;4990730;28;45266;-76
2021/09/21 02:25:34;;;;;;;;;39.00;35.00;;;;;;;;4990626;28;46274;-76
2021/09/21 02:28:00;;;;;;;;;41.50;34.00;;;;;;;;4991596;28;45335;-76
2021/09/21 02:30:25;;;;;;;;;32.75;28.50;;;;;;;;4991559;28;45284;-76
2021/09/21 02:32:50;;;;;;;;;41.50;37.25;;;;;;;;4989766;28;45555;-77
2021/09/21 02:35:16;;;;;;;;;40.25;33.75;;;;;;;;4989793;28;45339;-76
2021/09/21 02:37:42;;;;;;;;;35.50;29.75;;;;;;;;4990341;28;45482;-76
2021/09/21 02:40:08;;;;;;;;;47.00;38.00;;;;;;;;4973205;28;45325;-76
2021/09/21 02:42:34;;;;;;;;;45.50;37.00;;;;;;;;4992065;28;45518;-75
2021/09/21 02:44:59;;;;;;;;;43.00;34.50;;;;;;;;4988552;28;45371;-76
2021/09/21 02:47:24;;;;;;;;;44.00;35.25;;;;;;;;4989414;28;45332;-75
2021/09/21 02:49:50;;;;;;;;;41.75;37.00;;;;;;;;4989867;28;45411;-76
2021/09/21 02:52:15;;;;;;;;;36.75;33.50;;;;;;;;4973262;28;45625;-76
2021/09/21 02:54:40;;;;;;;;;47.25;36.25;;;;;;;;4994679;28;46390;-76
2021/09/21 02:57:05;;;;;;;;;39.25;34.50;;;;;;;;4992681;28;45617;-76
2021/09/21 02:59:31;;;;;;;;;40.50;33.00;;;;;;;;4992883;28;45462;-76
2021/09/21 03:01:56;;;;;;;;;40.50;34.50;;;;;;;;4992513;28;45322;-75
2021/09/21 03:04:27;;;;;;;;;45.00;36.00;;;;;;;;4992705;28;46374;-76
2021/09/21 03:07:01;;;;;;;;;42.50;37.75;;;;;;;;4994200;28;45308;-76
2021/09/21 03:13:02;;;;;;;;;46.75;38.00;;;;;;;;4992580;28;45507;-76
2021/09/21 03:17:27;;;;;;;;;47.00;37.50;;;;;;;;4992167;28;45441;-75
2021/09/21 03:19:53;;;;;;;;;42.50;34.25;;;;;;;;4991033;28;45500;-75
2021/09/21 03:22:19;;;;;;;;;46.00;37.75;;;;;;;;4991406;28;45392;-75
2021/09/21 03:24:44;;;;;;;;;44.25;36.00;;;;;;;;4994258;28;45391;-75
2021/09/21 03:27:09;;;;;;;;;50.00;39.50;;;;;;;;4992125;28;45259;-74
2021/09/21 03:29:34;;;;;;;;;43.00;35.00;;;;;;;;4992346;28;45379;-74
2021/09/21 03:32:00;;;;;;;;;45.50;39.25;;;;;;;;4991960;28;45436;-74
2021/09/21 03:34:25;;;;;;;;;47.25;38.00;;;;;;;;4992095;28;45242;-74
2021/09/21 03:36:50;;;;;;;;;48.50;41.00;;;;;;;;4994052;28;45248;-74
2021/09/21 03:39:15;;;;;;;;;47.50;37.75;;;;;;;;4992551;28;45351;-75
2021/09/21 03:41:41;;;;;;;;;44.00;37.00;;;;;;;;4995815;28;45293;-74
2021/09/21 03:44:06;;;;;;;;;41.25;35.75;;;;;;;;4998312;28;45447;-74
2021/09/21 03:46:31;;;;;;;;;47.25;36.75;;;;;;;;4997694;28;45428;-74
2021/09/21 03:48:56;;;;;;;;;45.25;38.75;;;;;;;;4999743;28;45405;-74
2021/09/21 03:51:22;;;;;;;;;43.50;35.50;;;;;;;;4993765;28;45247;-75
2021/09/21 03:53:47;;;;;;;;;47.25;39.50;;;;;;;;4992277;28;45391;-75
2021/09/21 03:56:12;;;;;;;;;49.25;39.00;;;;;;;;4991731;28;45318;-77
2021/09/21 03:58:37;;;;;;;;;48.50;39.00;;;;;;;;4990842;28;45544;-76
2021/09/21 04:01:03;;;;;;;;;49.75;40.50;;;;;;;;4992205;28;45329;-76
2021/09/21 04:03:28;;;;;;;;;49.25;38.25;;;;;;;;4990517;28;45891;-76
2021/09/21 04:05:53;;;;;;;;;49.00;38.25;;;;;;;;4991474;28;45403;-76
2021/09/21 04:08:18;;;;;;;;;49.75;39.00;;;;;;;;4991536;28;45688;-76
2021/09/21 04:10:43;;;;;;;;;45.50;37.25;;;;;;;;4991806;28;45447;-76
2021/09/21 04:13:09;;;;;;;;;39.75;36.50;;;;;;;;4991456;28;45410;-76
2021/09/21 04:15:34;;;;;;;;;48.50;40.00;;;;;;;;4993133;28;45387;-76
2021/09/21 04:18:02;;;;;;;;;50.25;39.25;;;;;;;;4991753;28;45406;-76
2021/09/21 04:20:27;;;;;;;;;49.00;40.75;;;;;;;;4991181;28;45284;-76
2021/09/21 04:22:52;;;;;;;;;50.50;40.50;;;;;;;;4991045;28;46257;-76
2021/09/21 04:25:18;;;;;;;;;53.00;42.00;;;;;;;;4991366;28;45557;-76
2021/09/21 04:27:43;;;;;;;;;52.75;40.00;;;;;;;;4993654;28;45387;-76
2021/09/21 04:30:09;;;;;;;;;50.75;39.25;;;;;;;;4990977;28;45489;-76
2021/09/21 04:32:35;;;;;;;;;50.25;41.00;;;;;;;;4991000;28;47187;-76
2021/09/21 04:35:01;;;;;;;;;51.50;42.75;;;;;;;;4990489;28;45339;-75
2021/09/21 04:37:26;;;;;;;;;51.50;40.00;;;;;;;;4989718;28;47317;-76
2021/09/21 04:39:51;;;;;;;;;55.75;42.00;;;;;;;;4992680;28;45533;-75
2021/09/21 04:42:21;;;;;;;;;49.75;39.75;;;;;;;;4989712;28;45442;-75
2021/09/21 04:44:46;;;;;;;;;51.00;39.25;;;;;;;;4990414;28;45319;-74
2021/09/21 04:47:12;;;;;;;;;46.50;37.25;;;;;;;;4990737;28;45367;-75
2021/09/21 04:49:37;;;;;;;;;49.50;39.50;;;;;;;;4990818;28;45401;-77
2021/09/21 04:52:02;;;;;;;;;55.00;42.50;;;;;;;;4991492;28;46076;-77
2021/09/21 04:54:28;;;;;;;;;53.75;41.75;;;;;;;;4992195;28;45389;-76
2021/09/21 04:56:53;;;;;;;;;55.00;42.50;;;;;;;;4990539;28;45441;-76
2021/09/21 04:59:18;;;;;;;;;52.50;42.25;;;;;;;;4990543;28;45479;-76
2021/09/21 05:01:43;;;;;;;;;53.25;40.75;;;;;;;;4990720;28;46322;-76
2021/09/21 05:04:08;;;;;;;;;47.50;40.50;;;;;;;;4972720;28;45373;-77
2021/09/21 05:06:34;;;;;;;;;50.25;36.25;;;;;;;;4992479;28;45287;-76
2021/09/21 05:08:59;;;;;;;;;47.25;37.75;;;;;;;;4990260;28;45535;-74
2021/09/21 05:11:24;;;;;;;;;51.75;39.25;;;;;;;;4990441;28;45330;-75
2021/09/21 05:13:49;;;;;;;;;51.50;40.50;;;;;;;;4990079;28;45347;-75
2021/09/21 05:16:15;;;;;;;;;52.25;41.00;;;;;;;;4971755;28;45322;-75
2021/09/21 05:18:40;;;;;;;;;50.50;42.25;;;;;;;;4991741;28;45380;-75
2021/09/21 05:21:05;;;;;;;;;51.00;40.00;;;;;;;;4988348;28;46092;-76
2021/09/21 05:23:30;;;;;;;;;49.25;38.75;;;;;;;;4989694;28;45391;-75
2021/09/21 05:25:55;;;;;;;;;42.50;35.50;;;;;;;;4989877;28;45336;-75
2021/09/21 05:28:21;;;;;;;;;44.75;36.50;;;;;;;;4989704;28;45480;-76
2021/09/21 05:30:46;;;;;;;;;50.00;39.25;;;;;;;;4991675;28;45473;-76
2021/09/21 05:33:11;;;;;;;;;43.00;38.00;;;;;;;;4990011;28;45497;-76
2021/09/21 05:35:36;;;;;;;;;50.25;40.25;;;;;;;;4989688;28;45412;-78
2021/09/21 05:38:02;;;;;;;;;45.50;38.25;;;;;;;;4990090;28;45512;-78
2021/09/21 05:40:28;;;;;;;;;45.75;40.75;;;;;;;;4989592;28;46147;-76
2021/09/21 05:42:54;;;;;;;;;47.25;36.50;;;;;;;;4991462;28;45401;-77
2021/09/21 05:45:19;;;;;;;;;44.75;37.00;;;;;;;;4990907;28;45415;-75
2021/09/21 05:47:44;;;;;;;;;48.25;37.25;;;;;;;;4989577;28;45351;-77
2021/09/21 05:50:11;;;;;;;;;39.75;37.25;;;;;;;;4989359;28;47032;-78
2021/09/21 05:52:36;;;;;;;;;63.50;49.00;;;;;;;;4989789;28;45347;-78
2021/09/21 05:55:02;;;;;;;;;60.75;47.25;;;;;;;;4990648;28;45341;-77
2021/09/21 05:57:28;;;;;;;;;50.00;39.50;;;;;;;;4989220;28;45319;-77
2021/09/21 05:59:53;;;;;;;;;45.25;37.00;;;;;;;;4988016;28;46431;-76
2021/09/21 06:02:21;;;;;;;;;48.00;39.50;;;;;;;;4989609;28;45367;-76
2021/09/21 06:04:46;;;;;;;;;47.50;37.00;;;;;;;;4990128;28;45201;-77
2021/09/21 06:07:11;;;;;;;;;39.00;35.25;;;;;;;;4990049;28;45303;-77
2021/09/21 06:09:37;;;;;;;;;46.50;35.50;;;;;;;;4990701;28;45600;-74
2021/09/21 06:12:02;;;;;;;;;44.00;36.50;;;;;;;;4988705;28;45410;-74
2021/09/21 06:14:27;;;;;;;;;38.50;34.25;;;;;;;;4988817;28;45533;-75
2021/09/21 06:16:53;;;;;;;;;45.25;35.50;;;;;;;;4988798;28;45512;-74
2021/09/21 06:19:18;;;;;;;;;40.00;33.75;;;;;;;;4988786;28;45934;-74
2021/09/21 06:21:44;;;;;;;;;42.25;36.75;;;;;;;;4990638;28;45329;-73
2021/09/21 06:24:09;;;;;;;;;45.50;38.00;;;;;;;;4988177;28;45534;-74
2021/09/21 06:26:34;;;;;;;;;43.00;37.00;;;;;;;;4988487;28;45439;-75
2021/09/21 06:29:00;;;;;;;;;45.50;37.25;;;;;;;;4992093;28;45634;-76
2021/09/21 06:31:25;;;;;;;;;47.50;37.00;;;;;;;;4974754;28;45649;-75
2021/09/21 06:33:50;;;;;;;;;39.75;34.50;;;;;;;;4994088;28;45316;-76
2021/09/21 06:36:16;;;;;;;;;41.75;38.25;;;;;;;;4990274;28;45386;-76
2021/09/21 06:38:42;;;;;;;;;42.00;36.00;;;;;;;;4991172;28;46643;-77
2021/09/21 06:41:07;;;;;;;;;39.50;35.75;;;;;;;;4991675;28;45280;-77
2021/09/21 06:43:33;;;;;;;;;39.25;30.50;;;;;;;;4990850;28;45440;-76
2021/09/21 06:45:58;;;;;;;;;35.75;31.75;;;;;;;;4974849;28;45505;-75
2021/09/21 06:48:24;;;;;;;;;38.75;30.00;;;;;;;;4991341;28;46020;-75
2021/09/21 06:50:49;;;;;;;;;39.00;32.75;;;;;;;;4991232;28;45430;-74
2021/09/21 06:53:15;;;;;;;;;37.00;32.50;;;;;;;;4990873;28;45354;-75
2021/09/21 06:55:40;;;;;;;;;34.00;31.00;;;;;;;;4991249;28;45251;-76
2021/09/21 06:58:05;;;;;;;;;36.50;33.00;;;;;;;;4991646;28;46819;-75
2021/09/21 07:00:34;;;;;;;;;34.75;31.50;;;;;;;;4992630;28;45577;-74
2021/09/21 07:03:00;;;;;;;;;24.75;20.25;;;;;;;;4991528;28;45472;-76
2021/09/21 07:05:25;;;;;;;;;35.50;28.50;;;;;;;;4972918;28;45471;-75
2021/09/21 07:07:52;;;;;;;;;30.25;27.50;;;;;;;;4990507;28;46964;-74
2021/09/21 07:10:18;;;;;;;;;33.25;27.50;;;;;;;;4990982;28;45570;-76
2021/09/21 07:12:44;;;;;;;;;26.50;24.25;;;;;;;;4993885;28;45215;-75
2021/09/21 07:15:10;;;;;;;;;30.00;24.75;;;;;;;;4990214;28;45296;-75
2021/09/21 07:17:35;;;;;;;;;30.75;27.75;;;;;;;;4989694;28;47015;-77
2021/09/21 07:20:00;;;;;;;;;25.00;22.25;;;;;;;;4991420;28;45480;-76
2021/09/21 07:22:26;;;;;;;;;28.00;25.00;;;;;;;;4973304;28;45497;-75
2021/09/21 07:24:51;;;;;;;;;17.75;15.75;;;;;;;;4993090;28;45442;-75
2021/09/21 07:27:17;;;;;;;;;27.00;23.00;;;;;;;;4990398;28;45812;-76
2021/09/21 07:29:42;;;;;;;;;28.75;24.75;;;;;;;;4990206;28;45427;-75
2021/09/21 07:32:08;;;;;;;;;19.25;16.25;;;;;;;;4972863;28;45394;-75
2021/09/21 07:34:33;;;;;;;;;23.75;18.50;;;;;;;;4990801;28;45509;-75
2021/09/21 07:36:58;;;;;;;;;29.25;26.75;;;;;;;;4991707;28;45565;-75
2021/09/21 07:39:23;;;;;;;;;27.00;21.25;;;;;;;;4972899;28;45310;-75
2021/09/21 07:41:49;;;;;;;;;24.50;23.00;;;;;;;;4990778;28;45541;-75
2021/09/21 07:44:14;;;;;;;;;21.00;19.50;;;;;;;;4991196;28;47865;-75
2021/09/21 07:46:39;;;;;;;;;20.00;20.00;;;;;;;;4990851;28;45386;-75
2021/09/21 07:49:04;;;;;;;;;19.00;18.25;;;;;;;;4990890;28;45575;-76
2021/09/21 07:51:30;;;;;;;;;21.75;17.25;;;;;;;;4993024;28;45453;-75
2021/09/21 07:53:55;;;;;;;;;20.75;17.75;;;;;;;;4988988;28;45654;-75
2021/09/21 07:56:21;;;;;;;;;14.00;14.00;;;;;;;;4989317;28;46095;-75
2021/09/21 07:58:46;;;;;;;;;16.25;16.25;;;;;;;;4991715;28;45517;-74
2021/09/21 08:01:11;;;;;;;;;17.00;15.00;;;;;;;;4990933;28;46405;-74
2021/09/21 08:03:37;;;;;;;;;18.75;15.00;;;;;;;;4992180;28;45372;-77
2021/09/21 08:06:02;;;;;;;;;16.25;14.00;;;;;;;;4989880;28;45486;-77
2021/09/21 08:08:27;;;;;;;;;19.00;14.50;;;;;;;;4990249;28;45473;-75
2021/09/21 08:10:52;;;;;;;;;9.50;9.50;;;;;;;;4991023;28;45286;-74
2021/09/21 08:13:18;;;;;;;;;11.50;11.00;;;;;;;;4973018;28;45595;-75
2021/09/21 08:15:43;;;;;;;;;18.75;14.00;;;;;;;;4992331;28;46064;-75
2021/09/21 08:18:08;;;;;;;;;16.25;14.00;;;;;;;;4990186;28;45285;-76
2021/09/21 08:20:34;;;;;;;;;16.75;16.75;;;;;;;;4990261;28;45544;-74
2021/09/21 08:22:59;;;;;;;;;14.50;13.00;;;;;;;;4990539;28;45391;-75
2021/09/21 08:25:25;;;;;;;;;14.50;11.00;;;;;;;;4990371;28;47375;-76
2021/09/21 08:27:50;;;;;;;;;12.50;11.50;;;;;;;;4974907;28;45297;-74
2021/09/21 08:30:17;;;;;;;;;12.75;12.50;;;;;;;;4990544;28;45224;-75
2021/09/21 08:32:43;;;;;;;;;19.75;17.25;;;;;;;;4988696;28;45474;-74
2021/09/21 08:35:08;;;;;;;;;11.75;10.75;;;;;;;;4988220;28;45452;-75
2021/09/21 08:37:33;;;;;;;;;12.25;10.75;;;;;;;;4990066;27;45561;-76
2021/09/21 08:39:59;;;;;;;;;12.50;10.00;;;;;;;;4992272;28;45299;-76
2021/09/21 08:42:24;;;;;;;;;15.00;11.00;;;;;;;;4991728;28;45424;-76
2021/09/21 08:44:49;;;;;;;;;7.75;7.75;;;;;;;;4990378;28;46943;-75
2021/09/21 08:47:14;;;;;;;;;13.75;13.75;;;;;;;;4990170;28;45396;-75
2021/09/21 08:49:40;;;;;;;;;10.00;9.00;;;;;;;;4989472;28;45307;-76
2021/09/21 08:52:05;;;;;;;;;8.50;6.00;;;;;;;;4990188;28;45306;-76
2021/09/21 08:54:31;;;;;;;;;10.50;9.25;;;;;;;;4991647;28;47152;-75
2021/09/21 08:56:57;;;;;;;;;11.25;10.50;;;;;;;;4989438;28;45330;-74
2021/09/21 08:59:30;;;;;;;;;8.75;8.75;;;;;;;;4990008;28;45358;-75
2021/09/21 09:01:55;;;;;;;;;10.50;10.00;;;;;;;;4989941;28;45304;-75
2021/09/21 09:04:20;;;;;;;;;15.00;12.25;;;;;;;;4989804;28;45511;-76
2021/09/21 09:06:50;;;;;;;;;12.25;9.25;;;;;;;;4992243;28;45530;-75
2021/09/21 09:09:17;;;;;;;;;8.25;7.25;;;;;;;;4989923;28;45494;-75
2021/09/21 09:11:45;;;;;;;;;14.50;14.50;;;;;;;;4987778;28;45572;-75
2021/09/21 09:14:17;;;;;;;;;8.50;6.50;;;;;;;;4987679;28;46270;-75
2021/09/21 09:16:43;;;;;;;;;10.25;8.75;;;;;;;;4989434;28;45579;-75
2021/09/21 09:19:10;;;;;;;;;12.00;8.50;;;;;;;;4989128;28;45370;-75
2021/09/21 09:21:38;;;;;;;;;12.50;8.25;;;;;;;;4991539;28;45430;-75
2021/09/21 09:24:05;;;;;;;;;9.00;7.00;;;;;;;;4988631;28;45513;-75
2021/09/21 09:26:33;;;;;;;;;10.75;9.25;;;;;;;;4989334;28;45532;-74
2021/09/21 09:28:58;;;;;;;;;14.00;13.25;;;;;;;;4989726;28;45438;-76
2021/09/21 09:31:31;;;;;;;;;10.00;9.00;;;;;;;;4989466;28;45380;-75
2021/09/21 09:34:07;;;;;;;;;9.25;9.25;;;;;;;;4990686;28;46377;-75
2021/09/21 09:36:41;;;;;;;;;9.00;9.00;;;;;;;;4989232;28;45289;-75
2021/09/21 09:39:07;;;;;;;;;11.75;9.75;;;;;;;;4989099;28;45441;-75
2021/09/21 09:41:39;;;;;;;;;9.00;9.00;;;;;;;;4989192;28;45385;-75
2021/09/21 09:44:08;;;;;;;;;15.00;14.00;;;;;;;;4988921;28;46651;-75
2021/09/21 09:46:52;;;;;;;;;12.25;12.25;;;;;;;;4988981;28;45434;-73
2021/09/21 09:49:28;;;;;;;;;15.00;12.75;;;;;;;;4987295;28;45345;-75
2021/09/21 09:51:55;;;;;;;;;13.50;13.50;;;;;;;;4986701;28;45520;-75
2021/09/21 09:54:20;;;;;;;;;13.25;12.25;;;;;;;;4987646;28;46109;-75
2021/09/21 09:56:46;;;;;;;;;14.00;14.00;;;;;;;;4988770;28;45401;-75
2021/09/21 09:59:15;;;;;;;;;12.50;12.50;;;;;;;;4988490;28;45530;-75
2021/09/21 10:01:41;;;;;;;;;16.00;14.75;;;;;;;;4987115;28;45486;-75
2021/09/21 10:04:06;;;;;;;;;22.25;16.00;;;;;;;;4988441;28;46321;-76
2021/09/21 10:06:32;;;;;;;;;17.75;16.25;;;;;;;;4990023;28;45322;-75
2021/09/21 10:08:57;;;;;;;;;21.50;16.75;;;;;;;;4988771;28;45330;-75
2021/09/21 10:11:24;;;;;;;;;14.50;14.50;;;;;;;;4987228;28;45304;-75
2021/09/21 10:13:49;;;;;;;;;15.25;13.75;;;;;;;;4988279;28;45397;-75
2021/09/21 10:16:14;;;;;;;;;18.25;17.75;;;;;;;;4988355;28;45473;-74
2021/09/21 10:18:43;;;;;;;;;14.75;14.75;;;;;;;;4991097;28;45422;-75
2021/09/21 10:21:09;;;;;;;;;14.50;14.50;;;;;;;;4988718;28;45368;-74
2021/09/21 10:23:35;;;;;;;;;16.25;15.00;;;;;;;;4987852;28;45346;-75
2021/09/21 10:26:13;;;;;;;;;14.25;14.25;;;;;;;;4988283;28;45398;-75
2021/09/21 10:28:39;;;;;;;;;18.25;18.25;;;;;;;;4987141;28;45426;-75
2021/09/21 10:31:10;;;;;;;;;14.50;14.50;;;;;;;;4988854;28;45445;-75
2021/09/21 10:33:35;;;;;;;;;21.25;16.75;;;;;;;;4988635;28;46114;-75
2021/09/21 10:36:01;;;;;;;;;18.00;17.25;;;;;;;;4987375;28;45272;-74
2021/09/21 10:38:26;;;;;;;;;15.25;15.25;;;;;;;;4987959;28;45235;-75
2021/09/21 10:41:02;;;;;;;;;14.00;14.00;;;;;;;;4970146;28;45295;-75
2021/09/21 10:43:29;;;;;;;;;13.25;13.00;;;;;;;;4973176;28;45315;-75
2021/09/21 10:46:11;;;;;;;;;18.25;17.00;;;;;;;;4989335;28;45274;-77
2021/09/21 10:48:37;;;;;;;;;18.50;17.25;;;;;;;;4988433;28;45368;-75
2021/09/21 10:51:05;;;;;;;;;15.50;14.50;;;;;;;;4969409;28;45357;-75
2021/09/21 10:53:31;;;;;;;;;20.75;17.00;;;;;;;;4987300;28;45364;-75
2021/09/21 10:55:59;;;;;;;;;14.75;14.50;;;;;;;;4987558;28;45370;-75
2021/09/21 10:58:24;;;;;;;;;18.25;16.75;;;;;;;;4987801;28;45469;-76
2021/09/21 11:00:49;;;;;;;;;13.75;13.75;;;;;;;;4989860;28;45409;-75
2021/09/21 11:03:16;;;;;;;;;15.00;15.00;;;;;;;;4987536;28;46492;-75
2021/09/21 11:05:41;;;;;;;;;25.50;21.75;;;;;;;;4987632;28;45337;-74
2021/09/21 11:08:08;;;;;;;;;15.75;14.50;;;;;;;;4986472;28;45402;-75
2021/09/21 11:10:34;;;;;;;;;19.25;16.00;;;;;;;;4986746;28;45399;-74
2021/09/21 11:13:00;;;;;;;;;20.50;20.50;;;;;;;;4989021;28;46270;-74
2021/09/21 11:15:27;;;;;;;;;16.25;16.00;;;;;;;;4991771;28;45312;-75
2021/09/21 11:18:02;;;;;;;;;17.00;16.25;;;;;;;;4991703;28;45564;-75
2021/09/21 11:20:28;;;;;;;;;34.50;32.25;;;;;;;;4991296;28;45293;-74
2021/09/21 11:22:53;;;;;;;;;21.00;20.00;;;;;;;;4990316;28;45370;-74
2021/09/21 11:25:18;;;;;;;;;18.75;17.50;;;;;;;;4990790;28;45529;-74
2021/09/21 11:27:43;;;;;;;;;22.75;22.75;;;;;;;;4992810;28;45337;-73
2021/09/21 11:30:10;;;;;;;;;18.25;16.75;;;;;;;;4990711;28;45399;-75
2021/09/21 11:32:36;;;;;;;;;20.50;17.25;;;;;;;;4990120;28;46502;-73
2021/09/21 11:35:03;;;;;;;;;14.75;14.75;;;;;;;;4990109;28;45523;-74
2021/09/21 11:37:28;;;;;;;;;17.50;17.25;;;;;;;;4991329;28;45498;-74
2021/09/21 11:39:54;;;;;;;;;18.50;18.25;;;;;;;;4993236;28;45523;-73
2021/09/21 11:42:26;;;;;;;;;19.50;17.00;;;;;;;;4989818;28;46194;-74
2021/09/21 11:44:59;;;;;;;;;18.00;18.00;;;;;;;;4990733;28;45489;-74
2021/09/21 11:47:24;;;;;;;;;15.00;14.75;;;;;;;;4989588;28;45476;-75
2021/09/21 11:49:53;;;;;;;;;14.75;14.75;;;;;;;;4989017;28;45675;-73
2021/09/21 11:52:20;;;;;;;;;19.50;18.00;;;;;;;;4990669;28;45511;-75
2021/09/21 11:54:45;;;;;;;;;21.00;17.25;;;;;;;;4992011;28;45383;-74
2021/09/21 11:57:11;;;;;;;;;14.25;13.25;;;;;;;;4990446;28;45708;-74
2021/09/21 11:59:36;;;;;;;;;16.00;16.00;;;;;;;;4990436;28;45468;-73
2021/09/21 12:02:01;;;;;;;;;16.25;13.75;;;;;;;;4990268;28;45563;-75
2021/09/21 12:04:30;;;;;;;;;20.00;16.50;;;;;;;;4990584;28;45498;-74
2021/09/21 12:06:55;;;;;;;;;20.75;16.50;;;;;;;;4992125;28;45326;-73
2021/09/21 12:09:20;;;;;;;;;18.75;17.75;;;;;;;;4989769;28;45434;-74
2021/09/21 12:11:46;;;;;;;;;19.50;16.00;;;;;;;;4990268;28;45338;-74
2021/09/21 12:14:11;;;;;;;;;12.75;12.75;;;;;;;;4989990;28;45503;-74
2021/09/21 12:16:36;;;;;;;;;15.75;14.50;;;;;;;;4990692;28;45860;-74
2021/09/21 12:19:12;;;;;;;;;15.25;14.50;;;;;;;;4969147;28;45496;-74
2021/09/21 12:21:40;;;;;;;;;14.25;14.00;;;;;;;;4991312;28;46044;-75
2021/09/21 12:24:06;;;;;;;;;15.00;13.00;;;;;;;;4990091;28;45725;-75
2021/09/21 12:26:31;;;;;;;;;15.25;15.25;;;;;;;;4987742;28;45394;-73
2021/09/21 12:28:57;;;;;;;;;18.25;15.25;;;;;;;;4988899;28;45404;-73
2021/09/21 12:31:25;;;;;;;;;21.00;17.75;;;;;;;;4990381;28;46257;-74
2021/09/21 12:33:52;;;;;;;;;17.25;15.25;;;;;;;;4988260;28;45429;-73
2021/09/21 12:36:23;;;;;;;;;17.75;16.00;;;;;;;;4990096;28;45397;-75
2021/09/21 12:39:01;;;;;;;;;20.25;18.25;;;;;;;;4990291;28;45603;-74
2021/09/21 12:41:28;;;;;;;;;14.25;13.75;;;;;;;;4989227;28;45275;-74
2021/09/21 12:43:54;;;;;;;;;14.75;14.50;;;;;;;;4989354;28;45357;-72
2021/09/21 12:46:19;;;;;;;;;13.75;13.50;;;;;;;;4988671;28;45492;-74
2021/09/21 12:48:44;;;;;;;;;20.75;17.75;;;;;;;;4991056;28;45315;-74
2021/09/21 12:51:10;;;;;;;;;21.75;20.50;;;;;;;;4989405;28;46191;-74
2021/09/21 12:53:36;;;;;;;;;20.50;17.00;;;;;;;;4989206;28;45522;-74
2021/09/21 12:56:05;;;;;;;;;18.75;18.00;;;;;;;;4989659;28;45487;-74
2021/09/21 12:58:39;;;;;;;;;18.00;17.00;;;;;;;;4988368;28;45402;-73
2021/09/21 13:01:05;;;;;;;;;14.50;14.50;;;;;;;;4990700;28;47248;-74
2021/09/21 13:03:32;;;;;;;;;23.50;21.00;;;;;;;;4991844;28;45265;-75
2021/09/21 13:05:58;;;;;;;;;18.75;16.75;;;;;;;;4987696;28;45439;-74
2021/09/21 13:08:23;;;;;;;;;17.50;16.50;;;;;;;;4987978;28;45418;-74
2021/09/21 13:10:48;;;;;;;;;18.25;15.50;;;;;;;;4989515;28;46292;-73
2021/09/21 13:13:14;;;;;;;;;21.50;18.50;;;;;;;;4989898;28;45296;-74
2021/09/21 13:15:39;;;;;;;;;17.75;16.00;;;;;;;;4973851;28;45474;-74
2021/09/21 13:18:05;;;;;;;;;16.25;16.25;;;;;;;;4989209;28;45443;-75
2021/09/21 13:20:31;;;;;;;;;17.50;16.75;;;;;;;;4988782;28;46141;-74
2021/09/21 13:22:57;;;;;;;;;19.50;16.00;;;;;;;;4971667;28;45442;-74
2021/09/21 13:25:22;;;;;;;;;17.25;13.00;;;;;;;;4989128;28;45326;-74
2021/09/21 13:27:49;;;;;;;;;22.75;20.00;;;;;;;;4991453;28;45335;-73
2021/09/21 13:30:14;;;;;;;;;21.50;20.50;;;;;;;;4988524;28;45733;-74
2021/09/21 13:32:40;;;;;;;;;19.50;17.50;;;;;;;;4989014;28;45305;-75
2021/09/21 13:35:08;;;;;;;;;18.25;16.25;;;;;;;;4971654;28;45498;-72
2021/09/21 13:37:34;;;;;;;;;18.50;15.75;;;;;;;;4989524;28;45608;-73
2021/09/21 13:39:59;;;;;;;;;17.00;16.50;;;;;;;;4989986;28;45812;-74
2021/09/21 13:42:24;;;;;;;;;19.00;17.75;;;;;;;;4990153;28;45286;-74
2021/09/21 13:44:50;;;;;;;;;15.50;15.50;;;;;;;;4988120;28;45335;-74
2021/09/21 13:47:15;;;;;;;;;25.25;21.50;;;;;;;;4987652;28;45523;-74
2021/09/21 13:49:40;;;;;;;;;15.75;14.00;;;;;;;;4988771;28;46666;-74
2021/09/21 13:52:09;;;;;;;;;23.75;18.50;;;;;;;;4989263;28;45402;-74
2021/09/21 13:54:34;;;;;;;;;15.50;15.00;;;;;;;;4988753;28;45370;-74
2021/09/21 13:56:59;;;;;;;;;16.75;16.75;;;;;;;;4988720;28;45395;-73
2021/09/21 13:59:24;;;;;;;;;19.25;19.25;;;;;;;;4988685;28;45770;-74
2021/09/21 14:01:49;;;;;;;;;19.50;17.50;;;;;;;;4988936;28;45480;-73
2021/09/21 14:04:15;;;;;;;;;20.75;19.25;;;;;;;;4988843;28;45242;-73
2021/09/21 14:06:40;;;;;;;;;21.50;20.50;;;;;;;;4990716;28;45367;-74
2021/09/21 14:09:05;;;;;;;;;19.25;19.25;;;;;;;;4988051;28;45943;-73
2021/09/21 14:11:30;;;;;;;;;22.75;21.25;;;;;;;;4988222;28;45472;-73
2021/09/21 14:13:56;;;;;;;;;17.00;14.75;;;;;;;;4989316;28;45485;-74
2021/09/21 14:16:21;;;;;;;;;20.00;16.50;;;;;;;;4988856;28;45579;-72
2021/09/21 14:18:46;;;;;;;;;28.00;26.50;;;;;;;;4989998;28;45399;-73
2021/09/21 14:21:11;;;;;;;;;22.00;15.50;;;;;;;;4987751;28;45475;-74